createdAt,value
2019-05-21T00:01:04.163Z,96.10
2019-05-21T00:03:33.879Z,96.00
2019-05-21T00:06:03.601Z,96.30
2019-05-21T00:08:33.319Z,96.20
2019-05-21T00:11:03.046Z,96.10
2019-05-21T00:13:32.801Z,96.20
2019-05-21T00:16:02.515Z,96.50
2019-05-21T00:18:32.238Z,96.60
2019-05-21T00:21:01.966Z,96.90
2019-05-21T00:23:31.699Z,96.40
2019-05-21T00:26:02.226Z,96.60
2019-05-21T00:28:38.282Z,96.80
2019-05-21T00:31:44.258Z,96.70
2019-05-21T00:34:50.126Z,96.80
2019-05-21T00:37:56.137Z,97.10
2019-05-21T00:41:02.176Z,97.30
2019-05-21T00:43:50.237Z,97.30
2019-05-21T00:46:19.882Z,97.20
2019-05-21T00:48:49.598Z,96.80
2019-05-21T00:51:19.324Z,96.70
2019-05-21T00:53:49.044Z,97.10
2019-05-21T00:56:18.803Z,97.60
2019-05-21T00:58:48.523Z,97.40
2019-05-21T01:01:18.289Z,97.00
2019-05-21T01:03:47.967Z,96.40
2019-05-21T01:06:17.699Z,96.10
2019-05-21T01:08:47.447Z,95.70
2019-05-21T01:11:17.160Z,95.50
2019-05-21T01:13:46.941Z,95.10
2019-05-21T01:16:16.659Z,94.80
2019-05-21T01:18:46.386Z,94.50
2019-05-21T01:21:16.110Z,95.00
2019-05-21T01:23:45.826Z,94.80
2019-05-21T01:26:16.794Z,95.00
2019-05-21T01:28:46.498Z,96.00
2019-05-21T01:31:16.258Z,96.80
2019-05-21T01:33:45.906Z,94.90
2019-05-21T01:36:15.545Z,95.30
2019-05-21T01:38:45.219Z,96.70
2019-05-21T01:41:14.935Z,96.60
2019-05-21T01:43:44.652Z,96.30
2019-05-21T01:46:14.394Z,96.30
2019-05-21T01:48:44.030Z,96.40
2019-05-21T01:51:13.746Z,96.70
2019-05-21T01:53:43.511Z,97.10
2019-05-21T01:56:13.233Z,97.20
2019-05-21T01:58:42.862Z,97.20
2019-05-21T02:01:12.537Z,97.70
2019-05-21T02:03:42.260Z,97.90
2019-05-21T02:06:11.980Z,97.90
2019-05-21T02:08:41.726Z,97.80
2019-05-21T02:11:11.440Z,97.60
2019-05-21T02:13:41.216Z,97.00
2019-05-21T02:16:10.927Z,96.40
2019-05-21T02:18:40.648Z,95.90
2019-05-21T02:21:10.376Z,95.50
2019-05-21T02:23:40.087Z,95.30
2019-05-21T02:26:09.852Z,95.20
2019-05-21T02:28:39.579Z,95.30
2019-05-21T02:31:09.300Z,96.70
2019-05-21T02:33:39.019Z,96.20
2019-05-21T02:36:08.731Z,96.40
2019-05-21T02:38:38.403Z,96.40
2019-05-21T02:41:08.116Z,96.30
2019-05-21T02:43:37.863Z,96.00
2019-05-21T02:46:07.590Z,95.20
2019-05-21T02:48:37.314Z,95.20
2019-05-21T02:51:07.051Z,95.00
2019-05-21T02:53:36.754Z,94.80
2019-05-21T02:56:06.427Z,94.70
2019-05-21T02:58:36.135Z,94.70
2019-05-21T03:01:10.678Z,94.80
2019-05-21T03:03:40.403Z,94.90
2019-05-21T03:06:14.444Z,94.70
2019-05-21T03:08:42.019Z,95.00
2019-05-21T03:11:11.783Z,94.70
2019-05-21T03:13:41.503Z,95.00
2019-05-21T03:16:11.220Z,94.80
2019-05-21T03:18:40.948Z,95.00
2019-05-21T03:21:10.659Z,95.80
2019-05-21T03:23:40.437Z,96.10
2019-05-21T03:26:10.154Z,96.40
2019-05-21T03:28:39.911Z,96.70
2019-05-21T03:31:09.645Z,96.80
2019-05-21T03:33:39.359Z,96.80
2019-05-21T03:36:09.079Z,96.80
2019-05-21T03:38:38.796Z,96.70
2019-05-21T03:41:08.563Z,97.40
2019-05-21T03:43:38.267Z,97.60
2019-05-21T03:46:08.024Z,97.60
2019-05-21T03:48:37.755Z,97.60
2019-05-21T03:51:07.802Z,97.70
2019-05-21T03:53:37.511Z,97.60
2019-05-21T03:56:07.239Z,97.40
2019-05-21T03:58:36.979Z,97.60
2019-05-21T04:01:06.689Z,97.90
2019-05-21T04:03:38.739Z,98.10
2019-05-21T04:06:08.462Z,98.30
2019-05-21T04:08:38.215Z,98.40
2019-05-21T04:11:10.396Z,98.70
2019-05-21T04:13:40.156Z,98.80
2019-05-21T04:16:11.435Z,98.60
2019-05-21T04:18:48.795Z,98.80
2019-05-21T04:21:18.513Z,98.90
2019-05-21T04:23:48.230Z,98.90
2019-05-21T04:26:17.959Z,98.90
2019-05-21T04:28:47.681Z,98.90
2019-05-21T04:31:17.428Z,98.70
2019-05-21T04:33:47.146Z,98.60
2019-05-21T04:36:16.906Z,98.70
2019-05-21T04:38:46.551Z,98.20
2019-05-21T04:41:16.285Z,98.20
2019-05-21T04:43:45.991Z,98.10
2019-05-21T04:46:15.699Z,98.00
2019-05-21T04:48:45.390Z,98.30
2019-05-21T04:51:15.100Z,98.10
2019-05-21T04:53:44.871Z,97.80
2019-05-21T04:56:14.582Z,97.70
2019-05-21T04:58:44.306Z,98.10
2019-05-21T05:01:14.066Z,98.10
2019-05-21T05:03:43.745Z,97.70
2019-05-21T05:06:14.591Z,98.00
2019-05-21T05:08:44.304Z,97.40
2019-05-21T05:11:14.372Z,97.70
2019-05-21T05:13:44.082Z,98.10
2019-05-21T05:16:13.795Z,97.80
2019-05-21T05:18:43.562Z,97.80
2019-05-21T05:21:13.274Z,97.80
2019-05-21T05:23:43.001Z,97.80
2019-05-21T05:26:12.746Z,97.60
2019-05-21T05:28:42.462Z,97.40
2019-05-21T05:31:15.108Z,97.30
2019-05-21T05:33:44.559Z,97.30
2019-05-21T05:36:19.613Z,97.10
2019-05-21T05:38:49.378Z,96.60
2019-05-21T05:41:20.652Z,96.50
2019-05-21T05:43:50.410Z,96.90
2019-05-21T05:46:20.121Z,96.90
2019-05-21T05:48:53.893Z,96.70
2019-05-21T05:51:23.631Z,96.50
2019-05-21T05:53:59.518Z,96.60
2019-05-21T05:56:29.741Z,96.80
2019-05-21T05:59:02.361Z,96.00
2019-05-21T06:01:33.614Z,95.60
2019-05-21T06:04:03.327Z,95.40
2019-05-21T06:06:33.398Z,95.30
2019-05-21T06:09:04.720Z,95.50
2019-05-21T06:11:38.750Z,95.70
2019-05-21T06:14:09.002Z,95.60
2019-05-21T06:16:38.710Z,95.80
2019-05-21T06:19:08.475Z,95.70
2019-05-21T06:21:39.702Z,96.20
2019-05-21T06:24:12.869Z,95.10
2019-05-21T06:26:40.770Z,95.10
2019-05-21T06:29:10.463Z,95.00
2019-05-21T06:31:40.957Z,95.00
2019-05-21T06:34:10.987Z,94.80
2019-05-21T06:36:40.722Z,94.70
2019-05-21T06:39:10.582Z,94.70
2019-05-21T06:41:40.303Z,94.30
2019-05-21T06:44:10.335Z,93.10
2019-05-21T06:46:40.435Z,92.00
2019-05-21T06:49:10.204Z,90.80
2019-05-21T06:51:39.927Z,90.80
2019-05-21T06:54:09.643Z,88.80
2019-05-21T06:56:39.346Z,87.00
2019-05-21T06:59:09.051Z,87.70
2019-05-21T07:01:38.803Z,87.60
2019-05-21T07:04:08.512Z,87.00
2019-05-21T07:06:38.256Z,88.10
2019-05-21T07:09:08.019Z,87.70
2019-05-21T07:11:37.719Z,87.10
2019-05-21T07:14:07.468Z,86.10
2019-05-21T07:16:37.170Z,89.40
2019-05-21T07:19:06.901Z,87.60
2019-05-21T07:21:37.859Z,87.20
2019-05-21T07:24:07.558Z,86.20
2019-05-21T07:26:37.201Z,87.50
2019-05-21T07:29:06.945Z,87.30
2019-05-21T07:31:36.647Z,85.70
2019-05-21T07:34:06.358Z,84.50
2019-05-21T07:36:36.110Z,85.00
2019-05-21T07:39:07.023Z,84.90
2019-05-21T07:41:36.780Z,83.00
2019-05-21T07:44:06.491Z,81.00
2019-05-21T07:46:39.510Z,81.40
2019-05-21T07:49:07.542Z,78.70
2019-05-21T07:51:37.259Z,79.00
2019-05-21T07:54:07.802Z,77.60
2019-05-21T07:56:37.540Z,78.10
2019-05-21T07:59:07.794Z,77.40
2019-05-21T08:01:37.479Z,75.70
2019-05-21T08:04:07.269Z,73.00
2019-05-21T08:06:36.972Z,73.70
2019-05-21T08:09:13.478Z,73.80
2019-05-21T08:11:38.595Z,72.40
2019-05-21T08:14:08.300Z,71.40
2019-05-21T08:16:39.098Z,71.30
2019-05-21T08:19:10.860Z,71.80
2019-05-21T08:21:40.886Z,72.10
2019-05-21T08:24:10.591Z,72.10
2019-05-21T08:26:40.346Z,70.90
2019-05-21T08:29:10.253Z,69.60
2019-05-21T08:31:40.009Z,71.60
2019-05-21T08:34:10.583Z,68.20
2019-05-21T08:36:40.326Z,68.90
2019-05-21T08:39:27.397Z,69.10
2019-05-21T08:41:43.003Z,68.90
2019-05-21T08:44:12.710Z,69.60
2019-05-21T08:46:42.459Z,70.70
2019-05-21T08:49:12.180Z,69.00
2019-05-21T08:51:41.899Z,67.20
2019-05-21T08:54:12.192Z,64.40
2019-05-21T08:56:41.887Z,64.00
2019-05-21T08:59:11.624Z,64.50
2019-05-21T09:01:41.323Z,62.50
2019-05-21T09:04:12.580Z,62.90
2019-05-21T09:06:42.286Z,63.50
2019-05-21T09:09:12.030Z,66.60
2019-05-21T09:11:41.740Z,63.90
2019-05-21T09:14:11.476Z,64.50
2019-05-21T09:16:41.198Z,63.00
2019-05-21T09:19:12.383Z,62.10
2019-05-21T09:21:42.151Z,62.20
2019-05-21T09:24:11.859Z,63.60
2019-05-21T09:26:41.710Z,64.20
2019-05-21T09:29:11.561Z,65.60
2019-05-21T09:31:41.239Z,66.80
2019-05-21T09:34:12.154Z,67.00
2019-05-21T09:36:41.864Z,66.70
2019-05-21T09:39:11.580Z,66.90
2019-05-21T09:41:41.290Z,66.40
2019-05-21T09:44:11.127Z,64.60
2019-05-21T09:46:40.865Z,66.60
2019-05-21T09:49:10.574Z,63.90
2019-05-21T09:51:40.312Z,63.50
2019-05-21T09:54:10.019Z,63.20
2019-05-21T09:56:40.001Z,62.30
2019-05-21T09:59:27.546Z,64.20
2019-05-21T10:02:01.780Z,65.60
2019-05-21T10:04:31.516Z,65.40
2019-05-21T10:07:01.244Z,66.80
2019-05-21T10:09:31.068Z,67.00
2019-05-21T10:12:01.721Z,66.60
2019-05-21T10:14:34.135Z,65.80
2019-05-21T10:17:02.813Z,65.00
2019-05-21T10:19:32.559Z,65.00
2019-05-21T10:22:02.275Z,64.30
2019-05-21T10:24:32.976Z,65.00
2019-05-21T10:27:03.556Z,63.50
2019-05-21T10:29:33.474Z,63.00
2019-05-21T10:32:03.186Z,62.70
2019-05-21T10:34:33.794Z,63.20
2019-05-21T10:37:03.516Z,62.60
2019-05-21T10:39:33.216Z,63.40
2019-05-21T10:42:03.026Z,62.20
2019-05-21T10:44:32.746Z,61.70
2019-05-21T10:47:02.451Z,65.60
2019-05-21T10:49:32.164Z,66.00
2019-05-21T10:52:01.922Z,63.30
2019-05-21T10:54:31.634Z,63.10
2019-05-21T10:57:01.589Z,62.90
2019-05-21T10:59:31.274Z,64.70
2019-05-21T11:02:24.475Z,64.00
2019-05-21T11:04:58.501Z,62.10
2019-05-21T11:07:28.260Z,62.50
2019-05-21T11:09:57.984Z,63.50
2019-05-21T11:12:27.690Z,59.20
2019-05-21T11:14:57.336Z,60.10
2019-05-21T11:17:27.050Z,61.80
2019-05-21T11:19:56.736Z,61.00
2019-05-21T11:22:26.437Z,61.00
2019-05-21T11:24:56.204Z,61.90
2019-05-21T11:27:25.978Z,60.80
2019-05-21T11:29:55.688Z,59.70
2019-05-21T11:32:25.403Z,60.00
2019-05-21T11:34:55.108Z,59.30
2019-05-21T11:37:24.852Z,61.20
2019-05-21T11:39:54.558Z,60.70
2019-05-21T11:42:24.310Z,62.00
2019-05-21T11:44:54.002Z,62.80
2019-05-21T11:47:23.722Z,65.30
2019-05-21T11:49:53.457Z,64.70
2019-05-21T11:52:25.682Z,65.00
2019-05-21T11:54:55.989Z,66.20
2019-05-21T11:57:25.733Z,65.40
2019-05-21T11:59:55.499Z,66.70
2019-05-21T12:02:25.318Z,66.80
2019-05-21T12:04:55.067Z,67.40
2019-05-21T12:07:25.082Z,67.50
2019-05-21T12:09:54.833Z,68.00
2019-05-21T12:12:24.543Z,68.20
2019-05-21T12:14:54.262Z,69.60
2019-05-21T12:17:23.981Z,69.20
2019-05-21T12:19:53.684Z,69.50
2019-05-21T12:22:23.419Z,70.10
2019-05-21T12:24:53.156Z,70.10
2019-05-21T12:27:22.874Z,70.30
2019-05-21T12:29:52.587Z,70.30
2019-05-21T12:32:22.307Z,70.40
2019-05-21T12:34:52.019Z,70.70
2019-05-21T12:37:22.670Z,71.10
2019-05-21T12:39:53.415Z,70.30
2019-05-21T12:42:23.170Z,71.00
2019-05-21T12:44:52.982Z,69.00
2019-05-21T12:47:22.710Z,68.80
2019-05-21T12:49:53.459Z,69.30
2019-05-21T12:52:23.183Z,68.90
2019-05-21T12:54:52.934Z,68.30
2019-05-21T12:57:22.638Z,68.50
2019-05-21T12:59:52.368Z,69.50
2019-05-21T13:02:22.097Z,69.30
2019-05-21T13:04:51.823Z,67.10
2019-05-21T13:07:21.586Z,67.50
2019-05-21T13:09:51.462Z,68.80
2019-05-21T13:12:21.172Z,69.30
2019-05-21T13:14:50.888Z,66.80
2019-05-21T13:17:20.726Z,66.70
2019-05-21T13:19:50.370Z,67.00
2019-05-21T13:22:20.154Z,67.10
2019-05-21T13:24:49.833Z,67.50
2019-05-21T13:27:19.539Z,68.70
2019-05-21T13:29:49.263Z,68.00
2019-05-21T13:32:18.958Z,67.80
2019-05-21T13:34:48.721Z,67.80
2019-05-21T13:37:18.448Z,67.20
2019-05-21T13:39:50.401Z,67.70
2019-05-21T13:42:19.526Z,68.60
2019-05-21T13:44:50.371Z,67.80
2019-05-21T13:47:20.078Z,68.40
2019-05-21T13:49:49.835Z,68.50
2019-05-21T13:52:19.554Z,68.50
2019-05-21T13:54:49.274Z,66.70
2019-05-21T13:57:19.049Z,66.20
2019-05-21T13:59:48.698Z,67.50
2019-05-21T14:02:18.850Z,68.80
2019-05-21T14:04:48.591Z,68.70
2019-05-21T14:07:18.283Z,68.20
2019-05-21T14:09:48.096Z,66.90
2019-05-21T14:12:18.734Z,67.70
2019-05-21T14:14:48.540Z,69.50
2019-05-21T14:17:18.290Z,67.50
2019-05-21T14:19:48.093Z,66.30
2019-05-21T14:22:17.761Z,65.90
2019-05-21T14:24:47.476Z,66.90
2019-05-21T14:27:17.208Z,68.00
2019-05-21T14:29:48.388Z,67.10
2019-05-21T14:32:19.239Z,67.00
2019-05-21T14:35:00.784Z,67.60
2019-05-21T14:37:20.321Z,68.10
2019-05-21T14:39:50.026Z,68.10
2019-05-21T14:42:19.753Z,69.00
2019-05-21T14:44:49.452Z,70.20
2019-05-21T14:47:19.187Z,70.70
2019-05-21T14:49:49.385Z,70.80
2019-05-21T14:52:19.087Z,71.60
2019-05-21T14:54:48.830Z,70.70
2019-05-21T14:57:18.535Z,70.90
2019-05-21T14:59:48.257Z,71.60
2019-05-21T15:02:18.003Z,70.70
2019-05-21T15:04:47.992Z,71.30
2019-05-21T15:07:17.819Z,72.10
2019-05-21T15:09:47.569Z,72.00
2019-05-21T15:12:17.766Z,72.90
2019-05-21T15:14:47.443Z,73.70
2019-05-21T15:17:17.150Z,74.60
2019-05-21T15:19:49.075Z,74.80
2019-05-21T15:22:18.789Z,72.70
2019-05-21T15:24:48.502Z,72.00
2019-05-21T15:27:18.223Z,71.40
2019-05-21T15:29:47.934Z,70.30
2019-05-21T15:32:17.687Z,70.40
2019-05-21T15:34:47.440Z,70.60
2019-05-21T15:37:17.175Z,71.30
2019-05-21T15:39:46.890Z,72.10
2019-05-21T15:42:16.975Z,72.50
2019-05-21T15:44:46.691Z,76.10
2019-05-21T15:47:16.396Z,81.20
2019-05-21T15:49:46.170Z,85.40
2019-05-21T15:52:17.466Z,87.40
2019-05-21T15:54:47.244Z,88.50
2019-05-21T15:57:16.951Z,90.60
2019-05-21T15:59:46.670Z,91.50
2019-05-21T16:02:16.314Z,92.30
2019-05-21T16:04:46.025Z,92.60
2019-05-21T16:07:15.785Z,92.70
2019-05-21T16:09:47.003Z,93.70
2019-05-21T16:12:16.772Z,94.20
2019-05-21T16:14:46.485Z,94.70
2019-05-21T16:17:17.743Z,94.40
2019-05-21T16:19:47.442Z,95.10
2019-05-21T16:22:17.201Z,95.30
2019-05-21T16:24:48.012Z,95.20
2019-05-21T16:27:18.167Z,95.60
2019-05-21T16:29:47.880Z,95.80
2019-05-21T16:32:17.601Z,95.90
2019-05-21T16:34:47.319Z,95.80
2019-05-21T16:37:17.027Z,95.20
2019-05-21T16:39:47.401Z,95.80
2019-05-21T16:42:18.107Z,96.20
2019-05-21T16:44:48.870Z,95.70
2019-05-21T16:47:18.597Z,95.80
2019-05-21T16:49:48.519Z,96.20
2019-05-21T16:52:18.255Z,96.70
2019-05-21T16:54:47.963Z,96.80
2019-05-21T16:57:17.730Z,96.90
2019-05-21T16:59:47.435Z,97.40
2019-05-21T17:02:17.183Z,97.50
2019-05-21T17:04:46.892Z,97.70
2019-05-21T17:07:16.611Z,97.70
2019-05-21T17:09:46.367Z,97.80
2019-05-21T17:12:17.098Z,97.70
2019-05-21T17:14:49.854Z,97.30
2019-05-21T17:17:18.227Z,97.50
2019-05-21T17:19:47.952Z,97.30
2019-05-21T17:22:17.684Z,97.30
2019-05-21T17:24:47.518Z,97.40
2019-05-21T17:27:17.231Z,97.40
2019-05-21T17:29:46.983Z,97.30
2019-05-21T17:32:16.707Z,96.80
2019-05-21T17:34:46.419Z,96.60
2019-05-21T17:37:16.140Z,96.50
2019-05-21T17:39:45.857Z,96.20
2019-05-21T17:42:19.547Z,96.30
2019-05-21T17:44:49.264Z,96.40
2019-05-21T17:47:19.025Z,96.60
2019-05-21T17:49:48.734Z,96.60
2019-05-21T17:52:18.550Z,96.80
2019-05-21T17:54:56.710Z,96.80
2019-05-21T17:57:20.640Z,96.90
2019-05-21T17:59:50.367Z,97.00
2019-05-21T18:02:20.418Z,97.10
2019-05-21T18:04:50.433Z,96.90
2019-05-21T18:07:21.210Z,96.70
2019-05-21T18:09:51.430Z,96.70
2019-05-21T18:12:31.537Z,96.80
2019-05-21T18:14:53.455Z,96.90
2019-05-21T18:17:24.786Z,96.90
2019-05-21T18:19:54.695Z,97.00
2019-05-21T18:22:26.323Z,96.80
2019-05-21T18:24:55.282Z,96.60
2019-05-21T18:27:24.923Z,96.90
2019-05-21T18:29:54.636Z,97.00
2019-05-21T18:32:24.347Z,97.00
2019-05-21T18:34:54.099Z,97.20
2019-05-21T18:37:23.804Z,97.20
2019-05-21T18:39:53.523Z,97.20
2019-05-21T18:42:23.282Z,97.10
2019-05-21T18:44:53.037Z,97.20
2019-05-21T18:47:22.759Z,97.20
2019-05-21T18:49:52.480Z,97.30
2019-05-21T18:52:22.306Z,97.40
2019-05-21T18:54:52.026Z,97.30
2019-05-21T18:57:21.822Z,97.00
2019-05-21T18:59:52.639Z,97.10
2019-05-21T19:02:22.390Z,97.30
2019-05-21T19:04:52.099Z,97.20
2019-05-21T19:07:21.842Z,97.20
2019-05-21T19:09:51.563Z,97.30
2019-05-21T19:12:36.996Z,97.40
2019-05-21T19:14:55.094Z,97.40
2019-05-21T19:17:35.232Z,97.50
2019-05-21T19:19:56.214Z,97.70
2019-05-21T19:22:27.658Z,97.70
2019-05-21T19:24:57.283Z,97.90
2019-05-21T19:27:27.038Z,98.00
2019-05-21T19:29:56.765Z,98.10
2019-05-21T19:32:26.548Z,98.10
2019-05-21T19:34:56.265Z,98.30
2019-05-21T19:37:25.973Z,98.50
2019-05-21T19:39:55.722Z,98.60
2019-05-21T19:42:27.018Z,98.60
2019-05-21T19:44:57.071Z,98.60
2019-05-21T19:47:26.782Z,98.60
2019-05-21T19:49:56.430Z,98.60
2019-05-21T19:52:26.150Z,98.70
2019-05-21T19:54:56.869Z,98.80
2019-05-21T19:57:27.746Z,98.70
2019-05-21T19:59:57.463Z,98.70
2019-05-21T20:02:28.797Z,98.60
2019-05-21T20:04:58.910Z,98.70
2019-05-21T20:07:29.522Z,98.70
2019-05-21T20:09:59.346Z,98.70
2019-05-21T20:12:29.296Z,98.70
2019-05-21T20:14:59.025Z,98.70
2019-05-21T20:17:30.388Z,98.60
2019-05-21T20:20:01.015Z,98.50
2019-05-21T20:22:31.814Z,98.40
2019-05-21T20:25:02.160Z,98.40
2019-05-21T20:27:32.911Z,98.10
2019-05-21T20:30:12.323Z,98.00
2019-05-21T20:32:36.830Z,97.80
2019-05-21T20:35:08.254Z,97.70
2019-05-21T20:37:39.666Z,97.50
2019-05-21T20:40:11.854Z,97.60
2019-05-21T20:42:41.730Z,97.70
2019-05-21T20:45:14.321Z,97.80
2019-05-21T20:47:46.074Z,97.80
2019-05-21T20:50:18.065Z,97.90
2019-05-21T20:52:48.302Z,97.90
2019-05-21T20:55:18.224Z,97.80
2019-05-21T20:57:48.769Z,97.80
2019-05-21T21:00:22.744Z,97.90
2019-05-21T21:02:52.903Z,98.00
2019-05-21T21:05:23.167Z,98.10
2019-05-21T21:07:53.065Z,98.10
2019-05-21T21:10:22.779Z,98.30
2019-05-21T21:12:52.789Z,98.40
2019-05-21T21:15:23.607Z,98.60
2019-05-21T21:17:53.631Z,98.70
2019-05-21T21:20:23.596Z,98.70
2019-05-21T21:22:54.980Z,98.80
2019-05-21T21:25:26.235Z,98.80
2019-05-21T21:27:56.051Z,98.80
2019-05-21T21:30:25.989Z,98.80
2019-05-21T21:32:56.326Z,98.90
2019-05-21T21:35:26.223Z,98.90
2019-05-21T21:37:55.950Z,99.10
2019-05-21T21:40:26.947Z,99.20
2019-05-21T21:42:57.607Z,99.50
2019-05-21T21:45:27.357Z,99.60
2019-05-21T21:47:57.572Z,99.70
2019-05-21T21:50:28.134Z,99.90
2019-05-21T21:52:58.555Z,99.80
2019-05-21T21:55:31.684Z,99.80
2019-05-21T21:57:59.946Z,99.70
2019-05-21T22:00:55.244Z,99.70
2019-05-21T22:03:30.831Z,99.80
2019-05-21T22:06:02.609Z,99.90
2019-05-21T22:08:32.510Z,99.90
2019-05-21T22:11:02.236Z,99.90
2019-05-21T22:13:32.191Z,99.90
2019-05-21T22:16:02.001Z,99.90
2019-05-21T22:18:33.150Z,99.90
2019-05-21T22:21:03.883Z,99.90
2019-05-21T22:23:33.695Z,99.90
2019-05-21T22:26:03.687Z,99.90
2019-05-21T22:28:33.426Z,99.90
2019-05-21T22:31:03.336Z,99.90
2019-05-21T22:33:33.755Z,99.90
2019-05-21T22:36:03.910Z,99.90
2019-05-21T22:38:33.562Z,99.90
2019-05-21T22:41:03.472Z,99.90
2019-05-21T22:43:33.318Z,99.90
2019-05-21T22:46:03.038Z,99.90
2019-05-21T22:48:32.779Z,99.90
2019-05-21T22:51:03.511Z,99.90
2019-05-21T22:53:33.369Z,99.90
2019-05-21T22:56:03.087Z,99.90
2019-05-21T22:58:32.842Z,99.90
2019-05-21T23:01:03.279Z,99.90
2019-05-21T23:03:33.022Z,99.90
2019-05-21T23:06:02.735Z,99.90
2019-05-21T23:08:32.654Z,99.90
2019-05-21T23:11:02.778Z,99.90
2019-05-21T23:13:32.488Z,99.90
2019-05-21T23:16:02.957Z,99.90
2019-05-21T23:18:51.080Z,99.90
2019-05-21T23:21:39.569Z,99.90
2019-05-21T23:24:11.004Z,99.90
2019-05-21T23:26:40.670Z,99.90
2019-05-21T23:29:10.414Z,99.90
2019-05-21T23:31:40.176Z,99.90
2019-05-21T23:34:10.886Z,99.90
2019-05-21T23:36:41.731Z,99.90
2019-05-21T23:39:13.046Z,99.90
2019-05-21T23:41:44.289Z,99.90
2019-05-21T23:44:14.507Z,99.90
2019-05-21T23:46:44.279Z,99.90
2019-05-21T23:49:13.998Z,99.90
2019-05-21T23:51:43.939Z,99.90
2019-05-21T23:54:13.583Z,99.90
2019-05-21T23:56:43.294Z,99.90
2019-05-21T23:59:13.710Z,99.90
